Time;durP1;ratioP1;P1;durP2;ratioP2;P2;SDS_P1;SDS_P2;PMS_P1;PMS_P2;Temp;Humidity;BMP_temperature;BMP_pressure;BME280_temperature;BME280_humidity;BME280_pressure;Samples;Min_cycle;Max_cycle;Signal;HPM_P1;HPM_P2
2023/09/10 00:01:44;;;;;;;9.82;6.75;;;;;;;25.06;55.30;101607.34;5055297;28;20056;-65
2023/09/10 00:04:14;;;;;;;11.02;6.70;;;;;;;25.05;55.03;101613.97;5056178;27;20078;-65
2023/09/10 00:06:41;;;;;;;12.52;6.88;;;;;;;25.03;55.29;101610.69;5053388;28;20053;-65
2023/09/10 00:09:09;;;;;;;11.32;6.70;;;;;;;25.03;55.33;101613.44;5049556;27;20184;-65
2023/09/10 00:11:37;;;;;;;9.55;7.05;;;;;;;25.02;55.17;101609.06;5057441;27;20493;-65
2023/09/10 00:14:05;;;;;;;9.75;6.75;;;;;;;25.02;55.10;101611.81;5054831;27;20049;-66
2023/09/10 00:16:33;;;;;;;9.10;6.60;;;;;;;25.02;55.30;101614.56;5060720;27;20053;-65
2023/09/10 00:19:01;;;;;;;10.98;6.72;;;;;;;25.01;55.06;101606.59;5070321;27;20072;-65
2023/09/10 00:21:30;;;;;;;7.95;6.38;;;;;;;24.98;55.19;101611.59;5060679;28;20422;-65
2023/09/10 00:23:58;;;;;;;9.48;7.20;;;;;;;24.96;55.31;101608.31;5062058;28;20093;-65
2023/09/10 00:26:26;;;;;;;11.43;6.82;;;;;;;24.95;55.14;101603.09;5060680;27;20435;-65
2023/09/10 00:28:54;;;;;;;8.57;6.20;;;;;;;24.95;55.37;101609.41;5061644;28;20079;-65
2023/09/10 00:31:22;;;;;;;9.48;6.30;;;;;;;24.94;55.30;101610.53;5060849;28;20124;-65
2023/09/10 00:33:50;;;;;;;13.20;7.32;;;;;;;24.93;55.27;101606.16;5061067;27;20052;-65
2023/09/10 00:36:18;;;;;;;11.45;6.60;;;;;;;24.92;55.31;101603.69;5089058;27;20049;-65
2023/09/10 00:38:47;;;;;;;9.35;6.65;;;;;;;24.89;55.12;101601.53;5058524;28;20052;-65
2023/09/10 00:41:15;;;;;;;8.70;6.90;;;;;;;24.88;55.18;101608.97;5062519;27;20064;-66
2023/09/10 00:43:43;;;;;;;9.50;6.82;;;;;;;24.88;55.20;101602.66;5059486;28;20133;-65
2023/09/10 00:46:11;;;;;;;8.70;6.63;;;;;;;24.87;55.21;101601.84;5060560;28;20045;-66
2023/09/10 00:48:39;;;;;;;9.48;6.75;;;;;;;24.86;55.17;101596.63;5058796;27;20055;-65
2023/09/10 00:51:08;;;;;;;10.35;6.90;;;;;;;24.85;55.35;101597.75;5060266;27;20045;-65
2023/09/10 00:53:35;;;;;;;9.15;6.53;;;;;;;24.83;55.12;101602.75;5058686;28;20053;-65
2023/09/10 00:56:05;;;;;;;9.80;6.93;;;;;;;24.82;55.42;101603.84;5058863;28;20058;-65
2023/09/10 00:58:33;;;;;;;8.18;6.28;;;;;;;24.80;55.23;101606.91;5057471;27;20057;-65
2023/09/10 01:01:01;;;;;;;11.93;6.93;;;;;;;24.76;55.27;101603.13;5054984;27;20097;-65
2023/09/10 01:03:30;;;;;;;8.95;6.85;;;;;;;24.77;55.49;101602.00;5057176;28;20053;-66
2023/09/10 01:06:00;;;;;;;9.82;7.20;;;;;;;24.76;55.22;101602.31;5054605;27;20070;-65
2023/09/10 01:08:28;;;;;;;9.38;7.05;;;;;;;24.74;55.27;101599.84;5054018;28;20474;-67
2023/09/10 01:11:08;;;;;;;8.35;6.50;;;;;;;24.73;55.39;101600.97;5058053;28;20067;-66
2023/09/10 01:13:51;;;;;;;8.57;6.43;;;;;;;24.72;55.42;101601.25;5059660;27;20049;-66
2023/09/10 01:16:24;;;;;;;8.48;6.28;;;;;;;24.70;55.22;101601.56;5053521;27;20077;-65
2023/09/10 01:19:02;;;;;;;8.68;6.75;;;;;;;24.69;55.55;101604.59;5056386;27;20151;-66
2023/09/10 01:21:42;;;;;;;9.75;6.10;;;;;;;24.65;55.55;101596.13;5061045;28;20045;-66
2023/09/10 01:24:21;;;;;;;8.93;6.72;;;;;;;24.64;55.74;101603.56;5058748;28;20117;-66
2023/09/10 01:26:56;;;;;;;9.65;6.93;;;;;;;24.61;55.67;101601.41;5061169;28;20049;-66
2023/09/10 01:29:24;;;;;;;10.95;7.47;;;;;;;24.61;55.60;101606.09;5059938;28;20045;-66
2023/09/10 01:31:54;;;;;;;8.90;7.05;;;;;;;24.60;55.77;101612.72;5061413;28;20105;-66
2023/09/10 01:34:25;;;;;;;9.88;7.75;;;;;;;24.57;55.89;101605.06;5059871;27;20105;-66
2023/09/10 01:37:00;;;;;;;9.88;6.85;;;;;;;24.55;55.71;101605.34;5055106;28;20450;-65
2023/09/10 01:39:36;;;;;;;8.00;6.63;;;;;;;24.51;55.91;101598.81;5053619;27;20080;-66
2023/09/10 01:42:06;;;;;;;9.30;7.35;;;;;;;24.52;55.82;101610.63;5074492;27;20181;-65
2023/09/10 01:44:35;;;;;;;11.68;8.02;;;;;;;24.50;55.82;101601.88;5057222;28;20143;-66
2023/09/10 01:47:04;;;;;;;10.65;7.50;;;;;;;24.48;55.94;101613.16;5058517;27;20049;-66
2023/09/10 01:49:32;;;;;;;11.27;7.05;;;;;;;24.46;55.72;101607.13;5058166;28;20059;-66
2023/09/10 01:52:00;;;;;;;11.10;6.85;;;;;;;24.45;55.90;101610.19;5059101;28;20045;-65
2023/09/10 01:54:28;;;;;;;11.57;7.28;;;;;;;24.43;55.81;101612.41;5055008;27;20053;-66
2023/09/10 01:56:56;;;;;;;10.40;7.25;;;;;;;24.41;55.93;101615.44;5058826;27;20041;-66
2023/09/10 01:59:25;;;;;;;11.63;6.97;;;;;;;24.40;56.09;101616.56;5058043;28;20084;-66
2023/09/10 02:01:53;;;;;;;12.20;7.60;;;;;;;24.39;56.19;101614.13;5056775;27;20049;-65
2023/09/10 02:04:21;;;;;;;9.88;7.10;;;;;;;24.37;56.00;101617.16;5055669;28;20056;-66
2023/09/10 02:06:49;;;;;;;10.95;7.90;;;;;;;24.32;56.13;101608.97;5057473;28;20061;-65
2023/09/10 02:09:17;;;;;;;11.57;7.78;;;;;;;24.34;56.09;101617.75;5056628;27;20416;-64
2023/09/10 02:11:44;;;;;;;12.32;6.85;;;;;;;24.32;56.09;101623.53;5055965;27;20045;-64
2023/09/10 02:14:12;;;;;;;11.57;7.97;;;;;;;24.31;56.01;101615.59;5060057;27;20056;-65
2023/09/10 02:16:41;;;;;;;11.95;7.72;;;;;;;24.30;55.98;101616.69;5056770;28;20065;-65
2023/09/10 02:19:09;;;;;;;11.00;8.25;;;;;;;24.28;56.18;101613.44;5056243;28;20045;-64
2023/09/10 02:21:37;;;;;;;11.77;8.50;;;;;;;24.25;56.04;101612.09;5057470;27;20127;-64
2023/09/10 02:24:05;;;;;;;9.40;7.45;;;;;;;24.24;56.42;101617.88;5058881;28;20156;-65
2023/09/10 02:26:33;;;;;;;12.70;8.55;;;;;;;24.22;56.40;101617.34;5058697;27;20053;-65
2023/09/10 02:29:01;;;;;;;9.70;7.68;;;;;;;24.22;56.32;101617.34;5055164;28;20041;-64
2023/09/10 02:31:28;;;;;;;8.60;7.13;;;;;;;24.19;56.31;101616.03;5056653;28;20067;-65
2023/09/10 02:34:00;;;;;;;10.60;7.68;;;;;;;24.19;56.52;101616.03;5056258;28;20067;-65
2023/09/10 02:36:28;;;;;;;11.48;8.02;;;;;;;24.15;56.03;101604.00;5056932;28;20072;-65
2023/09/10 02:38:56;;;;;;;11.05;8.10;;;;;;;24.18;56.13;101619.06;5053662;28;20045;-65
2023/09/10 02:41:24;;;;;;;11.23;8.18;;;;;;;24.15;56.25;101612.22;5064164;27;20089;-65
2023/09/10 02:43:52;;;;;;;12.85;8.25;;;;;;;24.15;56.12;101614.16;5057776;27;20053;-65
2023/09/10 02:46:20;;;;;;;9.07;8.13;;;;;;;24.14;56.31;101610.59;5055065;27;20049;-65
2023/09/10 02:48:48;;;;;;;10.35;7.97;;;;;;;24.14;56.51;101616.09;5056656;28;20424;-65
2023/09/10 02:51:17;;;;;;;10.50;7.55;;;;;;;24.11;56.23;101604.88;5057790;28;20081;-65
2023/09/10 02:53:44;;;;;;;12.02;8.13;;;;;;;24.11;56.13;101615.84;5057991;27;20144;-65
2023/09/10 02:56:12;;;;;;;9.85;7.60;;;;;;;24.09;56.18;101621.63;5057284;28;20052;-65
2023/09/10 02:58:40;;;;;;;11.60;8.05;;;;;;;24.09;56.18;101618.06;5057703;27;20055;-66
2023/09/10 03:01:08;;;;;;;11.25;8.25;;;;;;;24.08;56.43;101627.44;5052617;28;20066;-65
2023/09/10 03:03:36;;;;;;;11.55;8.45;;;;;;;24.07;56.14;101620.31;5060162;27;20055;-65
2023/09/10 03:06:12;;;;;;;13.18;9.13;;;;;;;24.06;56.40;101624.16;5057685;28;20057;-65
2023/09/10 03:08:42;;;;;;;12.77;9.40;;;;;;;24.02;56.16;101622.00;5059100;27;20041;-65
2023/09/10 03:11:10;;;;;;;10.80;8.48;;;;;;;24.03;56.44;101622.81;5053869;28;20128;-65
2023/09/10 03:13:38;;;;;;;11.70;8.52;;;;;;;24.03;56.59;101625.56;5060137;28;20049;-65
2023/09/10 03:16:06;;;;;;;12.73;9.13;;;;;;;24.01;56.28;101622.28;5059006;27;20044;-65
2023/09/10 03:18:34;;;;;;;12.95;8.75;;;;;;;23.99;56.63;101619.84;5060147;27;20049;-65
2023/09/10 03:21:03;;;;;;;11.88;7.97;;;;;;;23.98;56.29;101612.72;5058949;28;20055;-65
2023/09/10 03:23:30;;;;;;;14.82;9.25;;;;;;;23.97;56.53;101611.06;5053970;27;20057;-66
2023/09/10 03:26:00;;;;;;;14.80;9.60;;;;;;;23.96;56.43;101614.94;5074238;28;20077;-66
2023/09/10 03:28:27;;;;;;;12.70;9.95;;;;;;;23.94;56.86;101608.09;5061738;27;20048;-65
2023/09/10 03:30:58;;;;;;;12.32;9.23;;;;;;;23.91;56.47;101600.44;5059041;28;20109;-65
2023/09/10 03:33:26;;;;;;;13.38;9.13;;;;;;;23.92;56.49;101608.38;5057120;27;20116;-65
2023/09/10 03:35:54;;;;;;;14.80;9.57;;;;;;;23.91;56.68;101609.50;5055357;28;20121;-66
2023/09/10 03:38:22;;;;;;;11.65;9.23;;;;;;;23.90;56.94;101609.78;5051201;28;20088;-65
2023/09/10 03:40:50;;;;;;;12.10;9.25;;;;;;;23.89;56.86;101610.91;5056325;27;20057;-65
2023/09/10 03:43:19;;;;;;;11.18;9.25;;;;;;;23.85;56.61;101610.66;5060406;28;20057;-65
2023/09/10 03:45:49;;;;;;;13.43;9.82;;;;;;;23.85;56.83;101605.19;5049894;28;20117;-66
2023/09/10 03:48:17;;;;;;;15.48;9.18;;;;;;;23.83;57.10;101612.06;5057358;28;20045;-66
2023/09/10 03:50:45;;;;;;;11.68;9.15;;;;;;;23.82;57.14;101613.19;5054984;27;20068;-66
2023/09/10 03:53:12;;;;;;;13.75;9.63;;;;;;;23.80;57.03;101610.72;5056701;28;20097;-66
2023/09/10 03:55:41;;;;;;;13.63;9.35;;;;;;;23.79;57.12;101611.84;5053455;28;20053;-67
2023/09/10 03:58:10;;;;;;;12.95;9.35;;;;;;;23.77;56.84;101607.75;5058446;27;20045;-65
2023/09/10 04:00:39;;;;;;;12.27;8.95;;;;;;;23.76;57.01;101600.63;5055045;28;20085;-67
2023/09/10 04:03:08;;;;;;;12.57;9.50;;;;;;;23.75;57.07;101605.28;5058868;27;20041;-67
2023/09/10 04:05:36;;;;;;;11.25;8.90;;;;;;;23.74;57.01;101600.09;5059131;27;20078;-67
2023/09/10 04:08:05;;;;;;;12.43;9.40;;;;;;;23.73;57.26;101602.03;5059254;28;20045;-67
2023/09/10 04:10:33;;;;;;;12.55;9.93;;;;;;;23.69;57.37;101599.03;5060773;27;20100;-66
2023/09/10 04:13:01;;;;;;;11.82;9.63;;;;;;;23.68;57.13;101596.59;5057693;27;20046;-65
2023/09/10 04:15:29;;;;;;;13.35;9.65;;;;;;;23.68;57.45;101604.81;5049354;28;20045;-65
2023/09/10 04:17:58;;;;;;;11.52;9.70;;;;;;;23.65;57.53;101602.66;5058527;27;20108;-66
2023/09/10 04:20:26;;;;;;;12.02;9.80;;;;;;;23.65;57.17;101599.91;5051727;28;20194;-65
2023/09/10 04:22:54;;;;;;;14.45;10.00;;;;;;;23.63;57.49;101593.91;5056085;28;20052;-66
2023/09/10 04:25:21;;;;;;;13.48;8.93;;;;;;;23.61;57.49;101591.44;5054981;28;20041;-66
2023/09/10 04:27:49;;;;;;;13.50;10.15;;;;;;;23.61;57.57;101593.38;5054635;27;20051;-65
2023/09/10 04:30:17;;;;;;;14.07;9.77;;;;;;;23.58;57.30;101593.97;5053198;28;20439;-65
2023/09/10 04:32:45;;;;;;;12.30;8.98;;;;;;;23.56;57.49;101591.50;5056169;27;20125;-66
2023/09/10 04:35:14;;;;;;;13.77;9.52;;;;;;;23.56;57.14;101596.19;5060945;27;20059;-65
2023/09/10 04:37:42;;;;;;;13.75;9.20;;;;;;;23.55;57.72;101591.78;5062039;27;20054;-65
2023/09/10 04:40:11;;;;;;;12.48;9.40;;;;;;;23.54;57.68;101595.66;5049063;28;20097;-66
2023/09/10 04:42:39;;;;;;;12.65;9.65;;;;;;;23.51;57.41;101598.94;5055582;27;20045;-65
2023/09/10 04:45:08;;;;;;;13.73;9.63;;;;;;;23.48;57.71;101594.03;5053093;27;20049;-66
2023/09/10 04:47:36;;;;;;;12.68;9.40;;;;;;;23.47;57.64;101595.13;4702984;27;10000209;-65
2023/09/10 04:50:05;;;;;;;10.63;9.30;;;;;;;23.45;57.31;101595.44;5051935;28;20056;-65
2023/09/10 04:52:35;;;;;;;11.88;9.48;;;;;;;23.44;57.78;101595.72;5047367;27;20418;-65
2023/09/10 04:55:03;;;;;;;12.30;9.60;;;;;;;23.45;57.41;101597.34;5050974;28;20052;-65
2023/09/10 04:57:30;;;;;;;13.48;10.43;;;;;;;23.45;57.53;101602.84;5052711;27;21006;-66
2023/09/10 04:59:58;;;;;;;15.05;9.23;;;;;;;23.44;57.73;101599.28;5052341;27;20093;-65
2023/09/10 05:02:26;;;;;;;12.90;9.00;;;;;;;23.44;57.72;101604.78;5055759;27;20057;-66
2023/09/10 05:04:54;;;;;;;10.65;9.05;;;;;;;23.43;57.38;101607.81;5049910;28;20148;-66
2023/09/10 05:07:22;;;;;;;11.48;9.23;;;;;;;23.42;57.60;101608.91;5050874;28;20134;-66
2023/09/10 05:09:51;;;;;;;12.00;9.38;;;;;;;23.41;57.40;101610.84;5053489;28;20108;-65
2023/09/10 05:12:19;;;;;;;12.88;9.55;;;;;;;23.40;57.69;101619.34;5054904;28;20055;-65
2023/09/10 05:14:47;;;;;;;11.82;9.90;;;;;;;23.38;57.35;101612.22;5052281;28;20084;-65
2023/09/10 05:17:15;;;;;;;10.57;9.05;;;;;;;23.37;57.71;101610.59;5054237;27;20045;-65
2023/09/10 05:19:44;;;;;;;11.63;8.88;;;;;;;23.37;57.30;101620.75;5052148;27;20056;-65
2023/09/10 05:22:12;;;;;;;11.50;8.70;;;;;;;23.35;57.56;101614.72;5053353;28;20037;-65
2023/09/10 05:24:40;;;;;;;11.55;9.25;;;;;;;23.34;57.36;101613.91;5053953;28;20083;-65
2023/09/10 05:27:09;;;;;;;12.75;9.43;;;;;;;23.32;57.42;101613.38;5049663;27;20080;-65
2023/09/10 05:29:37;;;;;;;12.02;8.93;;;;;;;23.31;57.50;101619.97;5055684;27;20053;-65
2023/09/10 05:32:05;;;;;;;12.23;8.55;;;;;;;23.30;57.73;101620.28;5054279;27;20073;-65
2023/09/10 05:34:33;;;;;;;12.68;9.07;;;;;;;23.30;57.85;101625.75;5053779;27;20087;-64
2023/09/10 05:37:01;;;;;;;10.52;9.35;;;;;;;23.28;57.71;101617.00;5064785;27;20125;-66
2023/09/10 05:39:29;;;;;;;10.30;8.45;;;;;;;23.25;57.39;101615.66;5052464;28;20059;-65
2023/09/10 05:41:56;;;;;;;12.50;9.07;;;;;;;23.25;57.60;101612.91;5071035;27;20094;-66
2023/09/10 05:44:26;;;;;;;10.82;8.55;;;;;;;23.25;57.92;101620.31;5057399;27;20037;-65
2023/09/10 05:46:53;;;;;;;11.07;9.52;;;;;;;23.25;57.90;101620.31;5055565;28;20049;-65
2023/09/10 05:49:21;;;;;;;13.35;8.88;;;;;;;23.23;57.69;101623.34;5056713;28;20070;-65
2023/09/10 05:51:49;;;;;;;12.20;9.43;;;;;;;23.19;57.92;101614.06;5054711;27;20500;-65
2023/09/10 05:54:17;;;;;;;12.05;9.60;;;;;;;23.20;57.69;101615.69;5055810;27;20110;-65
2023/09/10 05:56:44;;;;;;;10.93;8.15;;;;;;;23.20;58.03;101623.91;5055574;28;20098;-66
2023/09/10 05:59:12;;;;;;;12.60;8.32;;;;;;;23.18;57.95;101628.88;5051891;27;20554;-66
2023/09/10 06:01:41;;;;;;;11.35;9.27;;;;;;;23.17;58.00;101626.41;5060617;28;20048;-68
2023/09/10 06:04:09;;;;;;;11.95;8.50;;;;;;;23.14;57.73;101621.50;5055730;28;20044;-67
2023/09/10 06:06:37;;;;;;;9.55;8.18;;;;;;;23.15;57.98;101632.19;5055992;27;20076;-65
2023/09/10 06:09:05;;;;;;;11.95;8.82;;;;;;;23.16;57.59;101636.56;5053417;28;20067;-66
2023/09/10 06:11:33;;;;;;;11.75;8.35;;;;;;;23.14;57.86;101636.03;5042449;28;20112;-66
2023/09/10 06:14:01;;;;;;;10.15;8.30;;;;;;;23.14;58.01;101638.78;5056257;27;20075;-66
2023/09/10 06:16:29;;;;;;;13.55;8.00;;;;;;;23.15;58.18;101637.69;5059987;27;20053;-66
2023/09/10 06:18:58;;;;;;;11.30;8.48;;;;;;;23.15;58.12;101645.09;5057312;27;20848;-66
2023/09/10 06:21:26;;;;;;;12.93;8.30;;;;;;;23.15;58.21;101643.16;5053763;27;20051;-66
2023/09/10 06:23:54;;;;;;;11.35;7.93;;;;;;;23.16;57.79;101641.25;5054272;28;20138;-66
2023/09/10 06:26:22;;;;;;;13.40;8.48;;;;;;;23.17;57.96;101648.34;5056447;28;20069;-66
2023/09/10 06:28:50;;;;;;;12.10;8.30;;;;;;;23.18;57.94;101648.06;5056457;27;20141;-66
2023/09/10 06:31:18;;;;;;;10.82;8.05;;;;;;;23.20;58.18;101650.53;5054769;27;20045;-66
2023/09/10 06:33:46;;;;;;;10.60;7.63;;;;;;;23.20;57.64;101648.59;5054784;28;20097;-66
2023/09/10 06:36:16;;;;;;;12.45;8.45;;;;;;;23.21;57.92;101647.50;5054367;27;20426;-66
2023/09/10 06:38:47;;;;;;;9.82;7.63;;;;;;;23.23;57.92;101650.78;5049122;27;20061;-66
2023/09/10 06:41:15;;;;;;;11.25;7.80;;;;;;;23.23;58.08;101645.28;5056668;27;20136;-65
2023/09/10 06:43:43;;;;;;;13.52;7.97;;;;;;;23.22;57.75;101656.53;5067502;27;20059;-66
2023/09/10 06:46:11;;;;;;;10.32;7.72;;;;;;;;;;5054317;28;20049;-65
2023/09/10 06:48:39;;;;;;;9.30;7.97;;;;;;;23.27;58.19;101659.25;5054744;28;20536;-66
2023/09/10 06:51:07;;;;;;;9.13;7.72;;;;;;;23.27;58.13;101653.75;5052710;27;20041;-66
2023/09/10 06:53:36;;;;;;;17.75;8.48;;;;;;;23.29;58.29;101660.59;5059026;27;20049;-66
2023/09/10 06:56:04;;;;;;;16.45;8.25;;;;;;;23.29;58.09;101657.03;5055009;28;20053;-65
2023/09/10 06:58:32;;;;;;;8.80;7.45;;;;;;;23.31;58.56;101654.81;5059461;28;20063;-65
2023/09/10 07:01:04;;;;;;;14.48;8.88;;;;;;;23.31;58.20;101660.31;5051680;27;20109;-65
2023/09/10 07:03:33;;;;;;;12.50;8.32;;;;;;;23.30;58.12;101659.50;5053053;28;20057;-66
2023/09/10 07:06:03;;;;;;;12.75;7.70;;;;;;;23.38;58.38;101666.28;5049793;27;20513;-66
2023/09/10 07:08:31;;;;;;;11.55;8.18;;;;;;;23.35;58.33;101659.44;5050768;28;20083;-66
2023/09/10 07:11:01;;;;;;;11.07;8.45;;;;;;;23.42;58.34;101664.59;5051410;28;20053;-65
2023/09/10 07:13:29;;;;;;;11.20;8.05;;;;;;;23.44;58.23;101667.88;5055502;27;20041;-64
2023/09/10 07:15:57;;;;;;;11.88;8.43;;;;;;;23.46;58.52;101671.16;5053581;28;20056;-66
2023/09/10 07:18:26;;;;;;;14.45;7.93;;;;;;;23.46;58.16;101659.34;5055360;27;20052;-66
2023/09/10 07:20:54;;;;;;;9.52;7.75;;;;;;;23.50;58.51;101665.91;5051912;27;20079;-67
2023/09/10 07:23:22;;;;;;;11.57;8.10;;;;;;;23.51;58.55;101664.78;5051930;28;20053;-67
2023/09/10 07:25:50;;;;;;;11.43;8.10;;;;;;;23.50;58.40;101663.16;5050177;27;20089;-66
2023/09/10 07:28:19;;;;;;;12.27;8.43;;;;;;;23.50;58.45;101665.91;5049001;28;20053;-66
2023/09/10 07:30:47;;;;;;;12.73;8.10;;;;;;;23.49;58.63;101665.09;5053103;27;20090;-66
2023/09/10 07:33:15;;;;;;;11.90;8.10;;;;;;;23.50;58.86;101671.38;5051971;27;20056;-65
2023/09/10 07:35:43;;;;;;;13.48;7.28;;;;;;;23.50;58.79;101668.66;5084417;27;20074;-66
2023/09/10 07:38:11;;;;;;;11.80;7.43;;;;;;;23.50;58.52;101665.91;5050720;27;20064;-66
2023/09/10 07:40:38;;;;;;;11.98;7.15;;;;;;;23.36;58.95;101644.63;5052034;27;20485;-66
2023/09/10 07:43:06;;;;;;;11.57;7.90;;;;;;;23.50;58.56;101663.97;5065148;27;20048;-67
2023/09/10 07:45:35;;;;;;;12.05;7.60;;;;;;;23.50;58.71;101661.22;5050531;28;20053;-66
2023/09/10 07:48:04;;;;;;;11.57;6.95;;;;;;;23.50;59.15;101660.41;5051238;28;20577;-66
2023/09/10 07:50:31;;;;;;;12.63;7.72;;;;;;;23.50;58.92;101666.72;5053636;27;20049;-66
2023/09/10 07:53:00;;;;;;;11.48;7.93;;;;;;;23.50;58.82;101669.47;5053631;28;20564;-66
2023/09/10 07:55:28;;;;;;;12.85;7.68;;;;;;;23.50;59.12;101663.16;5054373;28;20420;-66
2023/09/10 07:57:55;;;;;;;12.05;7.28;;;;;;;23.52;58.91;101670.00;5052687;27;20041;-66
2023/09/10 08:00:24;;;;;;;11.00;7.13;;;;;;;23.52;59.31;101669.19;5048998;28;20106;-66
2023/09/10 08:02:53;;;;;;;10.38;7.70;;;;;;;23.52;59.47;101672.75;5048530;28;20053;-66
2023/09/10 08:05:21;;;;;;;10.82;7.00;;;;;;;23.54;59.48;101672.47;5048994;27;20056;-66
2023/09/10 08:07:49;;;;;;;13.40;6.78;;;;;;;23.50;59.37;101674.13;5049894;28;20176;-66
2023/09/10 08:10:17;;;;;;;9.25;7.38;;;;;;;23.54;59.58;101678.78;5054022;28;20045;-66
2023/09/10 08:12:44;;;;;;;14.27;6.80;;;;;;;23.50;59.56;101671.38;5055785;27;20109;-66
2023/09/10 08:15:12;;;;;;;10.80;6.63;;;;;;;23.55;59.51;101676.88;5054361;27;20133;-66
2023/09/10 08:17:40;;;;;;;11.38;6.85;;;;;;;23.53;59.21;101685.34;5054181;28;20049;-66
2023/09/10 08:20:11;;;;;;;9.27;6.78;;;;;;;23.56;59.29;101681.25;5054263;28;20052;-66
2023/09/10 08:22:39;;;;;;;16.30;7.22;;;;;;;23.57;59.74;101680.13;5050986;27;20080;-66
2023/09/10 08:25:08;;;;;;;10.90;6.80;;;;;;;23.57;59.25;101680.13;5054301;27;20109;-66
2023/09/10 08:27:36;;;;;;;10.63;6.85;;;;;;;23.58;59.62;101673.53;5048769;28;20056;-68
2023/09/10 08:30:05;;;;;;;8.95;6.88;;;;;;;23.59;59.59;101670.50;5053240;27;20044;-66
2023/09/10 08:32:33;;;;;;;10.43;6.28;;;;;;;23.61;59.78;101665.53;5055448;28;20059;-66
2023/09/10 08:35:02;;;;;;;10.32;7.18;;;;;;;23.62;59.82;101663.63;5057470;27;20109;-66
2023/09/10 08:37:31;;;;;;;7.78;6.13;;;;;;;23.63;59.98;101668.00;5056763;27;20052;-65
2023/09/10 08:39:59;;;;;;;11.95;6.32;;;;;;;23.64;59.93;101666.91;5058165;27;20049;-65
2023/09/10 08:42:37;;;;;;;9.05;6.57;;;;;;;23.65;59.74;101665.78;5059148;27;20095;-66
2023/09/10 08:45:07;;;;;;;10.68;6.53;;;;;;;23.67;59.77;101677.28;5058704;28;20057;-68
2023/09/10 08:47:39;;;;;;;10.77;6.13;;;;;;;23.67;60.09;101672.63;5057619;28;20064;-65
2023/09/10 08:50:11;;;;;;;9.00;6.35;;;;;;;23.69;60.02;101677.81;5058227;27;20045;-66
2023/09/10 08:52:43;;;;;;;10.48;6.88;;;;;;;23.69;60.02;101673.16;5059631;28;20049;-65
2023/09/10 08:55:13;;;;;;;16.48;7.07;;;;;;;23.72;60.61;101680.00;5059040;28;20045;-67
2023/09/10 08:57:43;;;;;;;8.27;6.03;;;;;;;23.74;60.39;101675.03;5069237;27;20053;-65
2023/09/10 09:00:13;;;;;;;13.25;7.25;;;;;;;23.76;60.65;101670.06;5060631;28;20052;-65
2023/09/10 09:02:41;;;;;;;10.52;6.18;;;;;;;23.79;60.47;101682.41;5059608;28;20059;-66
2023/09/10 09:05:10;;;;;;;10.40;6.65;;;;;;;23.80;61.05;101676.63;5058944;27;20056;-66
2023/09/10 09:07:45;;;;;;;8.68;5.78;;;;;;;23.83;61.25;101680.72;5059272;28;20501;-64
2023/09/10 09:10:18;;;;;;;10.55;6.65;;;;;;;23.84;61.54;101672.19;5053952;28;20045;-65
2023/09/10 09:12:47;;;;;;;9.10;5.43;;;;;;;23.87;60.97;101668.03;5058839;27;20045;-64
2023/09/10 09:15:17;;;;;;;12.50;6.63;;;;;;;23.88;61.39;101667.75;5059090;27;20041;-64
2023/09/10 09:17:46;;;;;;;9.85;6.05;;;;;;;23.91;61.50;101666.34;5059797;27;20045;-65
2023/09/10 09:20:17;;;;;;;11.25;5.88;;;;;;;23.94;61.66;101665.75;5053805;28;20080;-65
2023/09/10 09:22:49;;;;;;;9.70;6.13;;;;;;;23.96;61.99;101661.63;5053849;27;20087;-65
2023/09/10 09:25:17;;;;;;;9.25;6.28;;;;;;;24.00;62.00;101664.59;5058948;27;20053;-65
2023/09/10 09:27:46;;;;;;;8.77;5.93;;;;;;;24.04;61.65;101660.16;5059947;27;20053;-65
2023/09/10 09:30:13;;;;;;;12.70;6.72;;;;;;;24.04;61.65;101656.59;5061292;27;20049;-66
2023/09/10 09:32:43;;;;;;;9.63;6.03;;;;;;;24.10;62.04;101658.16;5058900;28;20045;-66
2023/09/10 09:35:11;;;;;;;8.57;6.25;;;;;;;24.14;61.97;101664.72;5056048;28;20051;-67
2023/09/10 09:37:39;;;;;;;8.65;5.47;;;;;;;24.17;62.16;101661.38;5057434;27;20116;-66
2023/09/10 09:40:09;;;;;;;8.88;6.03;;;;;;;24.21;62.27;101659.69;5055995;27;20085;-66
2023/09/10 09:42:37;;;;;;;7.68;5.70;;;;;;;24.24;62.21;101651.66;5057922;27;20481;-66
2023/09/10 09:45:06;;;;;;;9.27;5.90;;;;;;;24.29;62.21;101653.53;5060491;28;20442;-66
2023/09/10 09:47:34;;;;;;;10.73;6.13;;;;;;;24.28;62.29;101638.97;5063715;27;20082;-67
2023/09/10 09:50:03;;;;;;;9.25;6.18;;;;;;;24.35;62.24;101646.84;5060581;27;20045;-66
2023/09/10 09:52:31;;;;;;;8.32;5.10;;;;;;;24.40;62.67;101656.97;5057690;28;20709;-66
2023/09/10 09:54:59;;;;;;;7.55;5.85;;;;;;;24.43;62.48;101648.94;5062688;27;20049;-67
2023/09/10 09:57:28;;;;;;;8.43;6.00;;;;;;;24.46;62.40;101648.34;5062235;28;20113;-67
2023/09/10 09:59:56;;;;;;;9.68;5.88;;;;;;;24.50;62.26;101643.09;5062649;27;20044;-67
2023/09/10 10:02:24;;;;;;;8.35;6.15;;;;;;;24.53;62.29;101642.50;5060308;28;20041;-66
2023/09/10 10:04:54;;;;;;;8.05;5.70;;;;;;;24.56;62.38;101641.91;5059690;28;20060;-67
2023/09/10 10:07:26;;;;;;;9.43;5.78;;;;;;;24.62;62.24;101632.47;5055822;28;20071;-67
2023/09/10 10:10:16;;;;;;;6.80;5.18;;;;;;;24.62;62.94;101632.47;5060762;28;20053;-67
2023/09/10 10:12:46;;;;;;;11.48;5.78;;;;;;;24.75;63.06;101633.66;5063257;27;20094;-67
2023/09/10 10:15:17;;;;;;;6.97;5.40;;;;;;;24.77;62.72;101634.19;5059126;28;20069;-67
2023/09/10 10:17:46;;;;;;;8.80;5.35;;;;;;;24.81;62.27;101637.97;5058680;27;20063;-66
2023/09/10 10:20:15;;;;;;;10.95;5.80;;;;;;;24.82;62.28;101623.09;5060140;28;20056;-67
2023/09/10 10:22:43;;;;;;;10.18;5.82;;;;;;;24.91;62.27;101633.13;5061167;27;20120;-67
2023/09/10 10:25:13;;;;;;;7.25;5.13;;;;;;;24.95;62.24;101625.91;5060076;27;20109;-66
2023/09/10 10:27:43;;;;;;;7.28;5.18;;;;;;;25.01;62.22;101634.94;5061131;28;20049;-66
2023/09/10 10:30:13;;;;;;;9.13;6.07;;;;;;;25.03;62.04;101627.19;5062006;27;20057;-67
2023/09/10 10:32:44;;;;;;;8.90;5.38;;;;;;;25.03;61.97;101621.69;5057335;27;20144;-67
2023/09/10 10:35:13;;;;;;;6.50;5.03;;;;;;;25.14;61.65;101622.34;5061912;27;20051;-67
2023/09/10 10:37:48;;;;;;;7.70;5.10;;;;;;;25.18;61.64;101628.88;5058945;28;20045;-67
2023/09/10 10:40:19;;;;;;;8.00;5.38;;;;;;;25.22;61.67;101621.66;5055006;27;20478;-67
2023/09/10 10:42:55;;;;;;;7.00;5.35;;;;;;;25.25;61.51;101627.38;5068422;28;20064;-66
2023/09/10 10:45:26;;;;;;;10.27;5.25;;;;;;;25.28;61.62;101624.00;5051652;28;20049;-67
2023/09/10 10:47:56;;;;;;;8.93;5.60;;;;;;;25.34;61.36;101623.94;5061395;27;20109;-67
2023/09/10 10:50:26;;;;;;;7.53;5.35;;;;;;;25.39;61.62;101619.16;5061077;28;20056;-67
2023/09/10 10:53:01;;;;;;;7.22;5.07;;;;;;;25.44;61.60;101621.00;5059851;28;20108;-67
2023/09/10 10:55:30;;;;;;;6.80;5.32;;;;;;;25.49;61.71;101616.22;5059367;28;20583;-67
2023/09/10 10:57:58;;;;;;;9.25;4.85;;;;;;;25.52;61.69;101612.84;5055900;28;20140;-67
2023/09/10 11:00:29;;;;;;;8.90;5.05;;;;;;;25.53;61.42;101605.41;5058063;28;20064;-67
2023/09/10 11:03:10;;;;;;;9.75;5.15;;;;;;;25.59;61.38;101612.44;5059598;28;20157;-67
2023/09/10 11:06:07;;;;;;;6.72;5.03;;;;;;;25.64;61.06;101612.34;5047693;27;20071;-67
2023/09/10 11:08:37;;;;;;;6.53;4.68;;;;;;;25.69;60.79;101611.47;5058269;27;20060;-66
2023/09/10 11:11:08;;;;;;;9.90;4.85;;;;;;;25.74;60.82;101605.88;5058454;27;20045;-66
2023/09/10 11:14:01;;;;;;;8.88;4.38;;;;;;;25.74;60.76;101601.19;5059861;28;20049;-67
2023/09/10 11:16:31;;;;;;;6.47;4.28;;;;;;;25.83;60.55;101598.53;5059592;28;20136;-66
2023/09/10 11:19:00;;;;;;;7.38;4.45;;;;;;;25.84;61.00;101597.41;5061993;27;20079;-67
2023/09/10 11:22:02;;;;;;;11.65;4.85;;;;;;;25.85;60.56;101591.59;5059664;28;20056;-67
2023/09/10 11:24:35;;;;;;;8.43;5.07;;;;;;;25.92;60.80;101600.25;5056618;27;20052;-67
2023/09/10 11:27:21;;;;;;;6.68;4.38;;;;;;;26.04;60.97;101601.66;5053451;28;20048;-67
2023/09/10 11:30:08;;;;;;;7.10;4.43;;;;;;;26.13;61.41;101597.84;5057634;28;20045;-67